Saturday, August 18, 2018, 1:53 PM EDT
Back to Local

KNHK, Nas Patuxent River Md

Location: Patuxent River, MD, United States Lat: 38.3
Local Time: 1:53 PM EDT (17:53 GMT) Lon: -76.4
Time Zone: US/Eastern Elev: 39 ft

Show me the last for .
Show Decoded

2018-08-18 09:52 METAR KNHK 181352Z 25008KT 10SM FEW013 SCT140 OVC300 29/23 A2992 RMK AO2 SLP131
                 T02940233 =
2018-08-17 22:52 METAR KNHK 180252Z 20006KT 10SM FEW150 BKN280 30/24 A2995 RMK SLP142 T03000244
                 58005 =
2018-08-17 21:52 METAR KNHK 180152Z 21008KT 10SM FEW150 BKN280 31/24 A2997 RMK SLP148 T03060244 =
2018-08-17 20:52 METAR KNHK 180052Z 20006KT 10SM FEW150 OVC280 31/24 A2996 RMK SLP146 T03060244 =
2018-08-17 19:52 METAR KNHK 172352Z 19004KT 10SM FEW150 OVC280 31/26 A2996 RMK SLP147 T03060261
                 10344 20306 57006 =
2018-08-17 18:52 METAR KNHK 172252Z 19003KT 10SM FEW150 OVC280 32/25 A2997 RMK SLP149 T03170250 =
2018-08-17 17:52 METAR KNHK 172152Z 20005KT 10SM FEW160 BKN280 32/24 A2998 RMK SLP152 T03220239 =
2018-08-17 15:52 METAR KNHK 171952Z 20009KT 9SM FEW040 FEW160 SCT280 34/24 A3000 RMK AO2 SLP159
                 T03390239 =
2018-08-17 14:52 METAR KNHK 171852Z 17007KT 9SM FEW040 FEW160 SCT260 34/23 A3001 RMK AO2 SLP163
                 T03390233 =

Support USWX by starting your Amazon purchase here.